sensor_id;sensor_type;location;lat;lon;timestamp;P1;durP1;ratioP1;P2;durP2;ratioP2
26600;SDS011;14241;49.260;10.496;2023-09-08T00:01:28;4.50;;;3.65;;
26600;SDS011;14241;49.260;10.496;2023-09-08T00:03:53;4.60;;;3.40;;
26600;SDS011;14241;49.260;10.496;2023-09-08T00:06:18;6.07;;;4.30;;
26600;SDS011;14241;49.260;10.496;2023-09-08T00:08:43;6.75;;;3.88;;
26600;SDS011;14241;49.260;10.496;2023-09-08T00:11:08;7.63;;;3.93;;
26600;SDS011;14241;49.260;10.496;2023-09-08T00:13:34;7.07;;;3.60;;
26600;SDS011;14241;49.260;10.496;2023-09-08T00:15:59;5.87;;;4.20;;
26600;SDS011;14241;49.260;10.496;2023-09-08T00:18:24;4.90;;;3.70;;
26600;SDS011;14241;49.260;10.496;2023-09-08T00:20:49;5.60;;;3.78;;
26600;SDS011;14241;49.260;10.496;2023-09-08T00:23:15;5.78;;;3.85;;
26600;SDS011;14241;49.260;10.496;2023-09-08T00:25:40;5.13;;;4.33;;
26600;SDS011;14241;49.260;10.496;2023-09-08T00:28:05;5.95;;;4.20;;
26600;SDS011;14241;49.260;10.496;2023-09-08T00:30:31;6.97;;;4.28;;
26600;SDS011;14241;49.260;10.496;2023-09-08T00:32:56;6.87;;;3.80;;
26600;SDS011;14241;49.260;10.496;2023-09-08T00:35:21;6.53;;;4.40;;
26600;SDS011;14241;49.260;10.496;2023-09-08T00:37:47;5.20;;;4.60;;
26600;SDS011;14241;49.260;10.496;2023-09-08T00:40:12;5.10;;;4.33;;
26600;SDS011;14241;49.260;10.496;2023-09-08T00:42:37;5.17;;;4.63;;
26600;SDS011;14241;49.260;10.496;2023-09-08T00:45:02;8.97;;;4.60;;
26600;SDS011;14241;49.260;10.496;2023-09-08T00:47:28;8.10;;;4.57;;
26600;SDS011;14241;49.260;10.496;2023-09-08T00:49:53;6.53;;;4.77;;
26600;SDS011;14241;49.260;10.496;2023-09-08T00:52:19;7.15;;;5.15;;
26600;SDS011;14241;49.260;10.496;2023-09-08T00:54:44;9.93;;;5.30;;
26600;SDS011;14241;49.260;10.496;2023-09-08T00:57:09;9.47;;;5.23;;
26600;SDS011;14241;49.260;10.496;2023-09-08T00:59:35;8.43;;;5.68;;
26600;SDS011;14241;49.260;10.496;2023-09-08T01:02:01;8.65;;;5.70;;
26600;SDS011;14241;49.260;10.496;2023-09-08T01:04:26;7.07;;;5.20;;
26600;SDS011;14241;49.260;10.496;2023-09-08T01:06:51;5.65;;;4.80;;
26600;SDS011;14241;49.260;10.496;2023-09-08T01:09:17;8.35;;;4.60;;
26600;SDS011;14241;49.260;10.496;2023-09-08T01:11:43;9.02;;;5.13;;
26600;SDS011;14241;49.260;10.496;2023-09-08T01:14:08;8.00;;;5.05;;
26600;SDS011;14241;49.260;10.496;2023-09-08T01:16:33;10.00;;;5.27;;
26600;SDS011;14241;49.260;10.496;2023-09-08T01:18:58;7.55;;;5.28;;
26600;SDS011;14241;49.260;10.496;2023-09-08T01:26:20;6.05;;;5.20;;
26600;SDS011;14241;49.260;10.496;2023-09-08T01:28:48;6.90;;;4.50;;
26600;SDS011;14241;49.260;10.496;2023-09-08T01:31:14;5.15;;;4.65;;
26600;SDS011;14241;49.260;10.496;2023-09-08T01:33:40;8.35;;;4.65;;
26600;SDS011;14241;49.260;10.496;2023-09-08T01:36:05;5.80;;;4.50;;
26600;SDS011;14241;49.260;10.496;2023-09-08T01:38:30;5.50;;;4.60;;
26600;SDS011;14241;49.260;10.496;2023-09-08T01:40:56;6.50;;;4.40;;
26600;SDS011;14241;49.260;10.496;2023-09-08T01:43:21;5.23;;;4.73;;
26600;SDS011;14241;49.260;10.496;2023-09-08T01:45:46;6.40;;;5.03;;
26600;SDS011;14241;49.260;10.496;2023-09-08T01:48:11;4.93;;;4.43;;
26600;SDS011;14241;49.260;10.496;2023-09-08T01:50:36;5.73;;;4.57;;
26600;SDS011;14241;49.260;10.496;2023-09-08T01:53:01;7.07;;;5.18;;
26600;SDS011;14241;49.260;10.496;2023-09-08T01:55:27;5.97;;;4.83;;
26600;SDS011;14241;49.260;10.496;2023-09-08T01:57:52;7.07;;;4.80;;
26600;SDS011;14241;49.260;10.496;2023-09-08T02:00:17;5.80;;;4.80;;
26600;SDS011;14241;49.260;10.496;2023-09-08T02:02:43;6.95;;;5.25;;
26600;SDS011;14241;49.260;10.496;2023-09-08T02:05:08;5.78;;;5.20;;
26600;SDS011;14241;49.260;10.496;2023-09-08T02:07:34;7.93;;;5.72;;
26600;SDS011;14241;49.260;10.496;2023-09-08T02:09:59;8.30;;;5.60;;
26600;SDS011;14241;49.260;10.496;2023-09-08T02:12:24;6.10;;;5.47;;
26600;SDS011;14241;49.260;10.496;2023-09-08T02:14:49;6.45;;;5.15;;
26600;SDS011;14241;49.260;10.496;2023-09-08T02:17:17;6.10;;;5.22;;
26600;SDS011;14241;49.260;10.496;2023-09-08T02:19:43;12.07;;;5.47;;
26600;SDS011;14241;49.260;10.496;2023-09-08T02:22:08;6.63;;;4.83;;
26600;SDS011;14241;49.260;10.496;2023-09-08T02:24:33;5.43;;;4.93;;
26600;SDS011;14241;49.260;10.496;2023-09-08T02:26:59;9.60;;;5.37;;
26600;SDS011;14241;49.260;10.496;2023-09-08T02:29:24;6.43;;;5.10;;
26600;SDS011;14241;49.260;10.496;2023-09-08T02:31:49;7.53;;;5.35;;
26600;SDS011;14241;49.260;10.496;2023-09-08T02:34:14;6.43;;;5.43;;
26600;SDS011;14241;49.260;10.496;2023-09-08T02:36:40;7.93;;;5.50;;
26600;SDS011;14241;49.260;10.496;2023-09-08T02:39:06;8.18;;;5.50;;
26600;SDS011;14241;49.260;10.496;2023-09-08T02:41:32;6.50;;;5.78;;
26600;SDS011;14241;49.260;10.496;2023-09-08T02:43:57;6.93;;;5.93;;
26600;SDS011;14241;49.260;10.496;2023-09-08T02:46:22;8.87;;;5.27;;
26600;SDS011;14241;49.260;10.496;2023-09-08T02:48:48;8.03;;;5.57;;
26600;SDS011;14241;49.260;10.496;2023-09-08T02:51:13;7.30;;;5.60;;
26600;SDS011;14241;49.260;10.496;2023-09-08T02:53:39;5.53;;;4.73;;
26600;SDS011;14241;49.260;10.496;2023-09-08T02:56:04;6.75;;;4.90;;
26600;SDS011;14241;49.260;10.496;2023-09-08T02:58:30;7.95;;;4.82;;
26600;SDS011;14241;49.260;10.496;2023-09-08T03:00:58;6.75;;;4.90;;
26600;SDS011;14241;49.260;10.496;2023-09-08T03:03:33;5.65;;;5.03;;
26600;SDS011;14241;49.260;10.496;2023-09-08T03:05:59;5.50;;;5.00;;
26600;SDS011;14241;49.260;10.496;2023-09-08T03:08:28;8.10;;;5.22;;
26600;SDS011;14241;49.260;10.496;2023-09-08T03:10:55;10.80;;;5.50;;
26600;SDS011;14241;49.260;10.496;2023-09-08T03:13:20;7.25;;;5.95;;
26600;SDS011;14241;49.260;10.496;2023-09-08T03:15:45;7.93;;;6.03;;
26600;SDS011;14241;49.260;10.496;2023-09-08T03:18:10;7.20;;;5.70;;
26600;SDS011;14241;49.260;10.496;2023-09-08T03:20:35;6.53;;;5.73;;
26600;SDS011;14241;49.260;10.496;2023-09-08T03:23:00;8.63;;;6.27;;
26600;SDS011;14241;49.260;10.496;2023-09-08T03:25:26;7.27;;;5.67;;
26600;SDS011;14241;49.260;10.496;2023-09-08T03:27:51;9.27;;;6.33;;
26600;SDS011;14241;49.260;10.496;2023-09-08T03:30:16;6.13;;;5.07;;
26600;SDS011;14241;49.260;10.496;2023-09-08T03:32:41;6.30;;;5.70;;
26600;SDS011;14241;49.260;10.496;2023-09-08T03:35:07;5.70;;;5.10;;
26600;SDS011;14241;49.260;10.496;2023-09-08T03:37:33;6.30;;;5.18;;
26600;SDS011;14241;49.260;10.496;2023-09-08T03:39:58;6.95;;;5.25;;
26600;SDS011;14241;49.260;10.496;2023-09-08T03:42:23;5.93;;;5.43;;
26600;SDS011;14241;49.260;10.496;2023-09-08T03:44:48;5.80;;;5.20;;
26600;SDS011;14241;49.260;10.496;2023-09-08T03:47:14;6.00;;;4.97;;
26600;SDS011;14241;49.260;10.496;2023-09-08T03:49:39;8.13;;;5.27;;
26600;SDS011;14241;49.260;10.496;2023-09-08T03:52:04;6.87;;;6.17;;
26600;SDS011;14241;49.260;10.496;2023-09-08T03:54:29;6.63;;;5.90;;
26600;SDS011;14241;49.260;10.496;2023-09-08T03:56:55;6.70;;;5.70;;
26600;SDS011;14241;49.260;10.496;2023-09-08T03:59:20;6.40;;;5.70;;
26600;SDS011;14241;49.260;10.496;2023-09-08T04:01:45;7.57;;;5.53;;
26600;SDS011;14241;49.260;10.496;2023-09-08T04:04:10;7.13;;;5.67;;
26600;SDS011;14241;49.260;10.496;2023-09-08T04:06:35;7.37;;;5.87;;
26600;SDS011;14241;49.260;10.496;2023-09-08T04:09:00;6.70;;;5.77;;
26600;SDS011;14241;49.260;10.496;2023-09-08T04:11:26;6.53;;;5.87;;
26600;SDS011;14241;49.260;10.496;2023-09-08T04:13:51;7.47;;;5.20;;
26600;SDS011;14241;49.260;10.496;2023-09-08T04:16:16;7.10;;;5.60;;
26600;SDS011;14241;49.260;10.496;2023-09-08T04:18:41;6.93;;;6.23;;
26600;SDS011;14241;49.260;10.496;2023-09-08T04:21:06;6.83;;;5.53;;
26600;SDS011;14241;49.260;10.496;2023-09-08T04:23:32;7.75;;;5.47;;
26600;SDS011;14241;49.260;10.496;2023-09-08T04:25:57;7.23;;;5.77;;
26600;SDS011;14241;49.260;10.496;2023-09-08T04:28:23;10.00;;;5.87;;
26600;SDS011;14241;49.260;10.496;2023-09-08T04:30:48;6.17;;;5.37;;
26600;SDS011;14241;49.260;10.496;2023-09-08T04:33:13;8.00;;;5.70;;
26600;SDS011;14241;49.260;10.496;2023-09-08T04:35:38;6.27;;;5.57;;
26600;SDS011;14241;49.260;10.496;2023-09-08T04:38:03;6.80;;;5.00;;
26600;SDS011;14241;49.260;10.496;2023-09-08T04:40:28;5.57;;;5.00;;
26600;SDS011;14241;49.260;10.496;2023-09-08T04:42:54;6.20;;;5.60;;
26600;SDS011;14241;49.260;10.496;2023-09-08T04:45:19;6.83;;;6.07;;
26600;SDS011;14241;49.260;10.496;2023-09-08T04:47:44;6.82;;;5.43;;
26600;SDS011;14241;49.260;10.496;2023-09-08T04:50:11;8.95;;;5.95;;
26600;SDS011;14241;49.260;10.496;2023-09-08T04:52:36;8.77;;;5.57;;
26600;SDS011;14241;49.260;10.496;2023-09-08T04:55:02;6.20;;;5.60;;
26600;SDS011;14241;49.260;10.496;2023-09-08T04:57:27;7.17;;;5.47;;
26600;SDS011;14241;49.260;10.496;2023-09-08T04:59:53;6.85;;;5.35;;
26600;SDS011;14241;49.260;10.496;2023-09-08T05:02:19;5.80;;;5.20;;
26600;SDS011;14241;49.260;10.496;2023-09-08T05:04:44;6.80;;;5.50;;
26600;SDS011;14241;49.260;10.496;2023-09-08T05:07:09;7.70;;;5.63;;
26600;SDS011;14241;49.260;10.496;2023-09-08T05:09:35;5.85;;;5.22;;
26600;SDS011;14241;49.260;10.496;2023-09-08T05:12:00;6.63;;;5.67;;
26600;SDS011;14241;49.260;10.496;2023-09-08T05:14:25;6.18;;;5.30;;
26600;SDS011;14241;49.260;10.496;2023-09-08T05:16:50;7.27;;;5.50;;
26600;SDS011;14241;49.260;10.496;2023-09-08T05:19:20;7.07;;;6.22;;
26600;SDS011;14241;49.260;10.496;2023-09-08T05:21:45;8.68;;;5.88;;
26600;SDS011;14241;49.260;10.496;2023-09-08T05:24:11;7.07;;;5.90;;
26600;SDS011;14241;49.260;10.496;2023-09-08T05:26:37;8.23;;;6.50;;
26600;SDS011;14241;49.260;10.496;2023-09-08T05:29:02;8.75;;;6.78;;
26600;SDS011;14241;49.260;10.496;2023-09-08T05:31:28;9.20;;;6.60;;
26600;SDS011;14241;49.260;10.496;2023-09-08T05:33:53;7.07;;;6.37;;
26600;SDS011;14241;49.260;10.496;2023-09-08T05:36:18;9.93;;;6.05;;
26600;SDS011;14241;49.260;10.496;2023-09-08T05:38:44;8.57;;;5.93;;
26600;SDS011;14241;49.260;10.496;2023-09-08T05:41:09;11.07;;;6.20;;
26600;SDS011;14241;49.260;10.496;2023-09-08T05:43:34;9.93;;;6.27;;
26600;SDS011;14241;49.260;10.496;2023-09-08T05:45:59;7.85;;;6.63;;
26600;SDS011;14241;49.260;10.496;2023-09-08T05:48:25;8.07;;;5.90;;
26600;SDS011;14241;49.260;10.496;2023-09-08T05:50:50;9.90;;;5.70;;
26600;SDS011;14241;49.260;10.496;2023-09-08T05:53:15;9.90;;;5.85;;
26600;SDS011;14241;49.260;10.496;2023-09-08T05:55:40;12.00;;;7.07;;
26600;SDS011;14241;49.260;10.496;2023-09-08T05:58:05;6.90;;;6.20;;
26600;SDS011;14241;49.260;10.496;2023-09-08T06:00:32;9.27;;;6.47;;
26600;SDS011;14241;49.260;10.496;2023-09-08T06:02:57;7.15;;;5.88;;
26600;SDS011;14241;49.260;10.496;2023-09-08T06:05:22;6.70;;;6.10;;
26600;SDS011;14241;49.260;10.496;2023-09-08T06:07:48;9.50;;;6.73;;
26600;SDS011;14241;49.260;10.496;2023-09-08T06:10:14;8.02;;;5.45;;
26600;SDS011;14241;49.260;10.496;2023-09-08T06:12:39;7.43;;;5.30;;
26600;SDS011;14241;49.260;10.496;2023-09-08T06:15:04;9.70;;;5.50;;
26600;SDS011;14241;49.260;10.496;2023-09-08T06:17:30;7.50;;;5.20;;
26600;SDS011;14241;49.260;10.496;2023-09-08T06:19:55;5.93;;;5.07;;
26600;SDS011;14241;49.260;10.496;2023-09-08T06:22:20;7.10;;;4.97;;
26600;SDS011;14241;49.260;10.496;2023-09-08T06:24:45;6.70;;;5.53;;
26600;SDS011;14241;49.260;10.496;2023-09-08T06:27:10;6.23;;;5.10;;
26600;SDS011;14241;49.260;10.496;2023-09-08T06:29:36;7.93;;;5.10;;
26600;SDS011;14241;49.260;10.496;2023-09-08T06:32:01;9.55;;;5.05;;
26600;SDS011;14241;49.260;10.496;2023-09-08T06:34:27;6.57;;;5.80;;
26600;SDS011;14241;49.260;10.496;2023-09-08T06:36:52;14.80;;;6.63;;
26600;SDS011;14241;49.260;10.496;2023-09-08T06:39:17;12.07;;;5.87;;
26600;SDS011;14241;49.260;10.496;2023-09-08T06:41:42;7.27;;;5.67;;
26600;SDS011;14241;49.260;10.496;2023-09-08T06:44:07;8.93;;;5.63;;
26600;SDS011;14241;49.260;10.496;2023-09-08T06:46:33;8.97;;;5.83;;
26600;SDS011;14241;49.260;10.496;2023-09-08T06:48:59;6.22;;;4.90;;
26600;SDS011;14241;49.260;10.496;2023-09-08T06:51:24;7.27;;;4.87;;
26600;SDS011;14241;49.260;10.496;2023-09-08T06:53:56;12.17;;;5.40;;
26600;SDS011;14241;49.260;10.496;2023-09-08T06:56:21;5.97;;;5.15;;
26600;SDS011;14241;49.260;10.496;2023-09-08T06:58:46;8.10;;;5.93;;
26600;SDS011;14241;49.260;10.496;2023-09-08T07:01:11;7.10;;;4.90;;
26600;SDS011;14241;49.260;10.496;2023-09-08T07:03:37;10.00;;;4.77;;
26600;SDS011;14241;49.260;10.496;2023-09-08T07:06:02;5.93;;;4.33;;
26600;SDS011;14241;49.260;10.496;2023-09-08T07:08:28;6.22;;;4.68;;
26600;SDS011;14241;49.260;10.496;2023-09-08T07:10:53;10.23;;;4.50;;
26600;SDS011;14241;49.260;10.496;2023-09-08T07:13:19;5.60;;;4.25;;
26600;SDS011;14241;49.260;10.496;2023-09-08T07:15:44;6.27;;;4.43;;
26600;SDS011;14241;49.260;10.496;2023-09-08T07:18:09;8.85;;;5.07;;
26600;SDS011;14241;49.260;10.496;2023-09-08T07:20:34;14.33;;;5.03;;
26600;SDS011;14241;49.260;10.496;2023-09-08T07:23:00;13.43;;;5.65;;
26600;SDS011;14241;49.260;10.496;2023-09-08T07:25:25;16.30;;;6.28;;
26600;SDS011;14241;49.260;10.496;2023-09-08T07:27:50;8.27;;;4.80;;
26600;SDS011;14241;49.260;10.496;2023-09-08T07:30:17;5.38;;;4.13;;
26600;SDS011;14241;49.260;10.496;2023-09-08T07:32:43;5.07;;;4.20;;
26600;SDS011;14241;49.260;10.496;2023-09-08T07:35:09;6.32;;;3.85;;
26600;SDS011;14241;49.260;10.496;2023-09-08T07:37:39;5.70;;;4.40;;
26600;SDS011;14241;49.260;10.496;2023-09-08T07:40:04;6.87;;;4.47;;
26600;SDS011;14241;49.260;10.496;2023-09-08T07:42:29;7.90;;;4.95;;
26600;SDS011;14241;49.260;10.496;2023-09-08T07:44:55;7.10;;;4.65;;
26600;SDS011;14241;49.260;10.496;2023-09-08T07:47:20;6.27;;;4.40;;
26600;SDS011;14241;49.260;10.496;2023-09-08T07:49:45;7.90;;;4.00;;
26600;SDS011;14241;49.260;10.496;2023-09-08T07:52:12;6.13;;;4.38;;
26600;SDS011;14241;49.260;10.496;2023-09-08T07:54:37;6.70;;;4.60;;
26600;SDS011;14241;49.260;10.496;2023-09-08T07:57:03;5.80;;;4.40;;
26600;SDS011;14241;49.260;10.496;2023-09-08T07:59:28;7.57;;;4.65;;
26600;SDS011;14241;49.260;10.496;2023-09-08T08:01:53;8.50;;;5.00;;
26600;SDS011;14241;49.260;10.496;2023-09-08T08:04:18;9.23;;;4.23;;
26600;SDS011;14241;49.260;10.496;2023-09-08T08:06:43;6.63;;;4.17;;
26600;SDS011;14241;49.260;10.496;2023-09-08T08:09:09;5.23;;;4.23;;
26600;SDS011;14241;49.260;10.496;2023-09-08T08:11:35;5.43;;;3.95;;
26600;SDS011;14241;49.260;10.496;2023-09-08T08:14:00;6.77;;;4.13;;
26600;SDS011;14241;49.260;10.496;2023-09-08T08:16:26;10.02;;;4.82;;
26600;SDS011;14241;49.260;10.496;2023-09-08T08:18:51;9.68;;;4.95;;
26600;SDS011;14241;49.260;10.496;2023-09-08T08:21:17;5.68;;;3.63;;
26600;SDS011;14241;49.260;10.496;2023-09-08T08:23:42;6.53;;;4.03;;
26600;SDS011;14241;49.260;10.496;2023-09-08T08:26:07;6.13;;;4.33;;
26600;SDS011;14241;49.260;10.496;2023-09-08T08:28:32;8.30;;;4.25;;
26600;SDS011;14241;49.260;10.496;2023-09-08T08:30:58;7.43;;;4.10;;
26600;SDS011;14241;49.260;10.496;2023-09-08T08:33:23;5.50;;;4.07;;
26600;SDS011;14241;49.260;10.496;2023-09-08T08:35:50;9.45;;;4.28;;
26600;SDS011;14241;49.260;10.496;2023-09-08T08:38:16;8.20;;;4.20;;
26600;SDS011;14241;49.260;10.496;2023-09-08T08:40:41;5.67;;;3.97;;
26600;SDS011;14241;49.260;10.496;2023-09-08T08:43:07;5.40;;;3.80;;
26600;SDS011;14241;49.260;10.496;2023-09-08T08:45:32;8.13;;;4.50;;
26600;SDS011;14241;49.260;10.496;2023-09-08T08:47:57;5.63;;;4.30;;
26600;SDS011;14241;49.260;10.496;2023-09-08T08:50:24;6.45;;;4.15;;
26600;SDS011;14241;49.260;10.496;2023-09-08T08:52:49;5.95;;;4.15;;
26600;SDS011;14241;49.260;10.496;2023-09-08T08:55:14;6.65;;;4.40;;
26600;SDS011;14241;49.260;10.496;2023-09-08T08:57:40;5.40;;;4.70;;
26600;SDS011;14241;49.260;10.496;2023-09-08T09:00:10;12.40;;;4.93;;
26600;SDS011;14241;49.260;10.496;2023-09-08T09:02:37;4.75;;;3.70;;
26600;SDS011;14241;49.260;10.496;2023-09-08T09:05:03;7.20;;;4.60;;
26600;SDS011;14241;49.260;10.496;2023-09-08T09:07:29;7.30;;;4.20;;
26600;SDS011;14241;49.260;10.496;2023-09-08T09:09:55;9.02;;;4.10;;
26600;SDS011;14241;49.260;10.496;2023-09-08T09:12:20;6.50;;;4.00;;
26600;SDS011;14241;49.260;10.496;2023-09-08T09:14:46;6.97;;;4.05;;
26600;SDS011;14241;49.260;10.496;2023-09-08T09:17:15;5.10;;;3.75;;
26600;SDS011;14241;49.260;10.496;2023-09-08T09:19:40;8.40;;;4.00;;
26600;SDS011;14241;49.260;10.496;2023-09-08T09:22:06;7.10;;;4.03;;
26600;SDS011;14241;49.260;10.496;2023-09-08T09:27:00;8.05;;;4.63;;
26600;SDS011;14241;49.260;10.496;2023-09-08T09:29:26;6.40;;;4.22;;
26600;SDS011;14241;49.260;10.496;2023-09-08T09:31:52;11.45;;;4.00;;
26600;SDS011;14241;49.260;10.496;2023-09-08T09:34:18;7.88;;;4.32;;
26600;SDS011;14241;49.260;10.496;2023-09-08T09:36:43;5.18;;;4.18;;
26600;SDS011;14241;49.260;10.496;2023-09-08T09:39:10;5.53;;;3.72;;
26600;SDS011;14241;49.260;10.496;2023-09-08T09:41:36;5.85;;;3.75;;
26600;SDS011;14241;49.260;10.496;2023-09-08T09:44:01;5.40;;;4.57;;
26600;SDS011;14241;49.260;10.496;2023-09-08T09:46:29;6.25;;;4.30;;
26600;SDS011;14241;49.260;10.496;2023-09-08T09:48:54;10.15;;;4.40;;
26600;SDS011;14241;49.260;10.496;2023-09-08T09:51:21;5.20;;;4.05;;
26600;SDS011;14241;49.260;10.496;2023-09-08T09:53:47;5.28;;;3.40;;
26600;SDS011;14241;49.260;10.496;2023-09-08T09:56:14;5.38;;;4.13;;
26600;SDS011;14241;49.260;10.496;2023-09-08T09:58:40;6.50;;;3.72;;
26600;SDS011;14241;49.260;10.496;2023-09-08T10:01:05;5.10;;;4.07;;
26600;SDS011;14241;49.260;10.496;2023-09-08T10:03:30;5.93;;;4.07;;
26600;SDS011;14241;49.260;10.496;2023-09-08T10:05:57;7.22;;;4.20;;
26600;SDS011;14241;49.260;10.496;2023-09-08T10:08:23;5.25;;;3.80;;
26600;SDS011;14241;49.260;10.496;2023-09-08T10:10:49;6.20;;;4.13;;
26600;SDS011;14241;49.260;10.496;2023-09-08T10:13:18;6.97;;;3.75;;
26600;SDS011;14241;49.260;10.496;2023-09-08T10:15:47;6.32;;;4.38;;
26600;SDS011;14241;49.260;10.496;2023-09-08T10:18:14;6.30;;;4.32;;
26600;SDS011;14241;49.260;10.496;2023-09-08T10:20:41;5.03;;;4.05;;
26600;SDS011;14241;49.260;10.496;2023-09-08T10:23:07;8.88;;;4.50;;
26600;SDS011;14241;49.260;10.496;2023-09-08T10:25:37;4.32;;;3.50;;
26600;SDS011;14241;49.260;10.496;2023-09-08T10:28:04;6.38;;;3.65;;
26600;SDS011;14241;49.260;10.496;2023-09-08T10:30:31;5.53;;;3.42;;
26600;SDS011;14241;49.260;10.496;2023-09-08T10:32:56;4.40;;;3.38;;
26600;SDS011;14241;49.260;10.496;2023-09-08T10:35:22;6.90;;;4.10;;
26600;SDS011;14241;49.260;10.496;2023-09-08T10:37:47;6.38;;;3.40;;
26600;SDS011;14241;49.260;10.496;2023-09-08T10:42:47;4.90;;;3.47;;
26600;SDS011;14241;49.260;10.496;2023-09-08T10:45:16;4.87;;;3.60;;
26600;SDS011;14241;49.260;10.496;2023-09-08T10:50:15;4.68;;;2.97;;
26600;SDS011;14241;49.260;10.496;2023-09-08T10:52:41;3.60;;;3.00;;
26600;SDS011;14241;49.260;10.496;2023-09-08T10:55:06;6.38;;;3.85;;
26600;SDS011;14241;49.260;10.496;2023-09-08T10:57:31;5.65;;;3.55;;
26600;SDS011;14241;49.260;10.496;2023-09-08T10:59:59;5.85;;;3.28;;
26600;SDS011;14241;49.260;10.496;2023-09-08T11:02:35;4.97;;;3.75;;
26600;SDS011;14241;49.260;10.496;2023-09-08T11:05:01;5.00;;;3.25;;
26600;SDS011;14241;49.260;10.496;2023-09-08T11:07:27;8.30;;;3.55;;
26600;SDS011;14241;49.260;10.496;2023-09-08T11:09:52;6.73;;;3.20;;
26600;SDS011;14241;49.260;10.496;2023-09-08T11:12:17;5.30;;;3.63;;
26600;SDS011;14241;49.260;10.496;2023-09-08T11:14:43;8.47;;;3.47;;
26600;SDS011;14241;49.260;10.496;2023-09-08T11:17:08;7.97;;;3.40;;
26600;SDS011;14241;49.260;10.496;2023-09-08T11:19:46;5.63;;;4.13;;
26600;SDS011;14241;49.260;10.496;2023-09-08T11:22:12;4.78;;;3.45;;
26600;SDS011;14241;49.260;10.496;2023-09-08T11:24:38;4.25;;;3.08;;
26600;SDS011;14241;49.260;10.496;2023-09-08T11:27:03;8.80;;;3.65;;
26600;SDS011;14241;49.260;10.496;2023-09-08T11:29:28;4.53;;;3.20;;
26600;SDS011;14241;49.260;10.496;2023-09-08T11:31:54;3.23;;;2.87;;
26600;SDS011;14241;49.260;10.496;2023-09-08T11:34:20;4.03;;;3.17;;
26600;SDS011;14241;49.260;10.496;2023-09-08T11:36:46;4.28;;;2.97;;
26600;SDS011;14241;49.260;10.496;2023-09-08T11:39:11;5.30;;;3.40;;
26600;SDS011;14241;49.260;10.496;2023-09-08T11:41:36;5.00;;;2.87;;
26600;SDS011;14241;49.260;10.496;2023-09-08T11:44:01;4.80;;;3.20;;
26600;SDS011;14241;49.260;10.496;2023-09-08T11:46:27;4.35;;;2.83;;
26600;SDS011;14241;49.260;10.496;2023-09-08T11:48:52;5.47;;;3.03;;
26600;SDS011;14241;49.260;10.496;2023-09-08T11:51:21;4.43;;;3.20;;
26600;SDS011;14241;49.260;10.496;2023-09-08T11:53:47;5.82;;;2.83;;
26600;SDS011;14241;49.260;10.496;2023-09-08T11:56:12;8.47;;;3.13;;
26600;SDS011;14241;49.260;10.496;2023-09-08T11:58:37;6.13;;;3.00;;
26600;SDS011;14241;49.260;10.496;2023-09-08T12:01:03;4.57;;;3.05;;
26600;SDS011;14241;49.260;10.496;2023-09-08T12:03:28;4.28;;;3.40;;
26600;SDS011;14241;49.260;10.496;2023-09-08T12:05:53;4.90;;;3.67;;
26600;SDS011;14241;49.260;10.496;2023-09-08T12:08:19;3.93;;;2.87;;
26600;SDS011;14241;49.260;10.496;2023-09-08T12:10:44;4.78;;;3.17;;
26600;SDS011;14241;49.260;10.496;2023-09-08T12:13:09;7.43;;;2.87;;
26600;SDS011;14241;49.260;10.496;2023-09-08T12:15:36;5.75;;;3.38;;
26600;SDS011;14241;49.260;10.496;2023-09-08T12:18:02;3.50;;;3.10;;
26600;SDS011;14241;49.260;10.496;2023-09-08T12:20:28;6.95;;;3.05;;
26600;SDS011;14241;49.260;10.496;2023-09-08T12:22:53;3.60;;;2.85;;
26600;SDS011;14241;49.260;10.496;2023-09-08T12:25:19;4.80;;;2.93;;
26600;SDS011;14241;49.260;10.496;2023-09-08T12:27:44;5.85;;;2.75;;
26600;SDS011;14241;49.260;10.496;2023-09-08T12:30:15;5.90;;;3.28;;
26600;SDS011;14241;49.260;10.496;2023-09-08T12:32:41;5.38;;;3.25;;
26600;SDS011;14241;49.260;10.496;2023-09-08T12:35:06;5.87;;;3.53;;
26600;SDS011;14241;49.260;10.496;2023-09-08T12:37:32;6.88;;;3.17;;
26600;SDS011;14241;49.260;10.496;2023-09-08T12:39:58;6.85;;;2.95;;
26600;SDS011;14241;49.260;10.496;2023-09-08T12:42:23;4.97;;;2.90;;
26600;SDS011;14241;49.260;10.496;2023-09-08T12:44:53;5.78;;;2.92;;
26600;SDS011;14241;49.260;10.496;2023-09-08T12:47:19;5.50;;;2.77;;
26600;SDS011;14241;49.260;10.496;2023-09-08T12:49:44;4.15;;;3.28;;
26600;SDS011;14241;49.260;10.496;2023-09-08T12:52:10;4.60;;;3.38;;
26600;SDS011;14241;49.260;10.496;2023-09-08T12:54:35;7.25;;;3.10;;
26600;SDS011;14241;49.260;10.496;2023-09-08T12:57:01;5.35;;;3.10;;
26600;SDS011;14241;49.260;10.496;2023-09-08T12:59:26;8.27;;;3.20;;
26600;SDS011;14241;49.260;10.496;2023-09-08T13:01:51;4.23;;;3.17;;
26600;SDS011;14241;49.260;10.496;2023-09-08T13:04:17;4.13;;;2.90;;
26600;SDS011;14241;49.260;10.496;2023-09-08T13:06:43;4.13;;;2.67;;
26600;SDS011;14241;49.260;10.496;2023-09-08T13:09:09;4.90;;;3.43;;
26600;SDS011;14241;49.260;10.496;2023-09-08T13:11:34;5.00;;;3.27;;
26600;SDS011;14241;49.260;10.496;2023-09-08T13:13:59;3.90;;;3.23;;
26600;SDS011;14241;49.260;10.496;2023-09-08T13:16:24;4.33;;;2.90;;
26600;SDS011;14241;49.260;10.496;2023-09-08T13:18:50;5.55;;;2.47;;
26600;SDS011;14241;49.260;10.496;2023-09-08T13:21:16;6.47;;;3.20;;
26600;SDS011;14241;49.260;10.496;2023-09-08T13:23:41;4.63;;;3.42;;
26600;SDS011;14241;49.260;10.496;2023-09-08T13:26:06;6.33;;;3.07;;
26600;SDS011;14241;49.260;10.496;2023-09-08T13:28:32;4.00;;;3.10;;
26600;SDS011;14241;49.260;10.496;2023-09-08T13:30:57;4.20;;;3.35;;
26600;SDS011;14241;49.260;10.496;2023-09-08T13:33:22;3.63;;;3.27;;
26600;SDS011;14241;49.260;10.496;2023-09-08T13:35:47;6.57;;;2.90;;
26600;SDS011;14241;49.260;10.496;2023-09-08T13:38:13;4.93;;;3.13;;
26600;SDS011;14241;49.260;10.496;2023-09-08T13:40:38;6.57;;;2.97;;
26600;SDS011;14241;49.260;10.496;2023-09-08T13:43:03;5.87;;;2.80;;
26600;SDS011;14241;49.260;10.496;2023-09-08T13:45:28;4.20;;;2.53;;
26600;SDS011;14241;49.260;10.496;2023-09-08T13:47:53;5.07;;;2.73;;
26600;SDS011;14241;49.260;10.496;2023-09-08T13:50:19;3.03;;;2.43;;
26600;SDS011;14241;49.260;10.496;2023-09-08T13:52:44;4.67;;;2.60;;
26600;SDS011;14241;49.260;10.496;2023-09-08T13:55:09;4.20;;;2.70;;
26600;SDS011;14241;49.260;10.496;2023-09-08T13:57:35;4.93;;;2.90;;
26600;SDS011;14241;49.260;10.496;2023-09-08T14:00:00;4.72;;;2.90;;
26600;SDS011;14241;49.260;10.496;2023-09-08T14:02:26;4.60;;;3.00;;
26600;SDS011;14241;49.260;10.496;2023-09-08T14:04:51;4.67;;;3.07;;
26600;SDS011;14241;49.260;10.496;2023-09-08T14:07:16;5.03;;;3.40;;
26600;SDS011;14241;49.260;10.496;2023-09-08T14:09:41;3.43;;;2.97;;
26600;SDS011;14241;49.260;10.496;2023-09-08T14:12:07;4.00;;;2.70;;
26600;SDS011;14241;49.260;10.496;2023-09-08T14:14:32;4.87;;;2.70;;
26600;SDS011;14241;49.260;10.496;2023-09-08T14:16:57;4.47;;;2.73;;
26600;SDS011;14241;49.260;10.496;2023-09-08T14:19:22;2.93;;;2.63;;
26600;SDS011;14241;49.260;10.496;2023-09-08T14:21:47;5.50;;;2.60;;
26600;SDS011;14241;49.260;10.496;2023-09-08T14:24:13;4.43;;;2.60;;
26600;SDS011;14241;49.260;10.496;2023-09-08T14:26:38;3.85;;;2.72;;
26600;SDS011;14241;49.260;10.496;2023-09-08T14:29:03;3.77;;;2.67;;
26600;SDS011;14241;49.260;10.496;2023-09-08T14:31:29;4.47;;;2.72;;
26600;SDS011;14241;49.260;10.496;2023-09-08T14:33:54;4.70;;;3.05;;
26600;SDS011;14241;49.260;10.496;2023-09-08T14:36:20;5.13;;;2.63;;